Time;durP1;ratioP1;P1;durP2;ratioP2;P2;SDS_P1;SDS_P2;PMS_P1;PMS_P2;Temp;Humidity;BMP_temperature;BMP_pressure;BME280_temperature;BME280_humidity;BME280_pressure;Samples;Min_cycle;Max_cycle;Signal;HPM_P1;HPM_P2
2022/03/22 00:00:06;;;;;;;15.65;9.43;;;5.20;77.60;;;;;;5053783;28;20132;-86
2022/03/22 04:57:30;;;;;;;18.20;11.48;;;1.20;99.90;;;;;;4924185;29;20083;-90
2022/03/22 04:59:57;;;;;;;19.85;12.07;;;1.30;99.90;;;;;;4922546;29;20072;-91
2022/03/22 05:02:24;;;;;;;20.08;11.98;;;1.10;99.90;;;;;;4922483;29;20056;-91
2022/03/22 05:05:00;;;;;;;20.17;11.55;;;1.10;99.90;;;;;;4922478;29;20493;-90
2022/03/22 05:07:35;;;;;;;22.33;12.60;;;1.10;99.90;;;;;;4922394;29;20106;-93
2022/03/22 05:10:07;;;;;;;18.63;11.00;;;1.00;99.90;;;;;;4927105;29;20052;-92
2022/03/22 05:12:41;;;;;;;20.83;11.45;;;0.80;99.90;;;;;;4912615;29;20509;-93
2022/03/22 05:15:10;;;;;;;20.48;11.85;;;0.80;99.90;;;;;;4925532;29;20091;-81
2022/03/22 05:17:37;;;;;;;18.58;11.05;;;0.80;99.90;;;;;;4924521;29;20060;-90
2022/03/22 05:20:10;;;;;;;18.65;11.13;;;0.50;99.90;;;;;;4927047;29;20048;-87
2022/03/22 05:22:42;;;;;;;17.45;10.93;;;0.70;99.90;;;;;;4912229;29;20056;-85
2022/03/22 05:25:10;;;;;;;18.38;10.70;;;1.20;99.90;;;;;;4924807;29;20073;-87
2022/03/22 05:27:37;;;;;;;18.58;11.25;;;1.60;99.90;;;;;;4924533;29;20090;-92
2022/03/22 05:30:06;;;;;;;18.17;10.68;;;1.80;99.40;;;;;;4911331;29;20045;-90
2022/03/22 05:32:33;;;;;;;18.50;11.25;;;1.80;99.30;;;;;;4916112;29;20136;-87
2022/03/22 05:35:00;;;;;;;20.15;11.20;;;1.70;99.50;;;;;;4918789;29;20168;-87
2022/03/22 05:37:27;;;;;;;19.42;11.60;;;1.40;99.80;;;;;;4919185;29;20051;-89
2022/03/22 05:39:56;;;;;;;19.05;11.05;;;1.30;99.90;;;;;;4905207;29;20048;-91
2022/03/22 05:42:23;;;;;;;17.83;11.20;;;1.50;99.90;;;;;;4919640;29;20120;-88
2022/03/22 05:44:51;;;;;;;17.92;11.57;;;1.50;99.90;;;;;;4919352;29;20083;-91
2022/03/22 05:47:18;;;;;;;20.52;12.45;;;1.70;99.80;;;;;;4919784;29;20052;-88
2022/03/22 05:49:46;;;;;;;18.92;11.57;;;1.20;99.90;;;;;;4924576;29;20140;-90
2022/03/22 05:52:17;;;;;;;19.88;11.98;;;0.80;99.90;;;;;;4924213;29;20487;-91
2022/03/22 05:54:44;;;;;;;20.48;11.27;;;1.10;99.90;;;;;;4926201;29;20071;-88
2022/03/22 05:57:13;;;;;;;18.50;10.98;;;0.90;99.90;;;;;;4926373;29;20083;-89
2022/03/22 05:59:40;;;;;;;18.35;10.60;;;1.20;99.90;;;;;;4924182;29;20128;-88
2022/03/22 06:02:07;;;;;;;19.00;11.23;;;1.30;99.90;;;;;;4920478;29;20091;-90
2022/03/22 06:04:34;;;;;;;19.33;11.00;;;1.70;99.90;;;;;;4919249;29;20071;-88
2022/03/22 06:07:01;;;;;;;20.15;11.02;;;1.80;99.60;;;;;;4918818;29;20135;-87
2022/03/22 06:09:29;;;;;;;19.80;11.60;;;2.00;99.10;;;;;;4919091;29;20486;-88
2022/03/22 06:11:56;;;;;;;20.10;11.75;;;1.90;99.20;;;;;;4919111;29;20131;-86
2022/03/22 06:14:24;;;;;;;19.95;11.82;;;1.80;99.70;;;;;;4920884;29;20130;-88
2022/03/22 06:16:51;;;;;;;23.23;11.45;;;1.80;99.80;;;;;;4919996;29;20091;-89
2022/03/22 06:19:18;;;;;;;18.90;11.07;;;1.80;99.80;;;;;;4919757;29;20480;-88
2022/03/22 06:21:45;;;;;;;19.77;11.98;;;1.70;99.80;;;;;;4920314;29;20056;-89
2022/03/22 06:24:12;;;;;;;20.40;11.55;;;1.60;99.90;;;;;;4920167;29;20094;-90
2022/03/22 06:26:40;;;;;;;19.05;11.65;;;1.40;99.90;;;;;;4918897;29;20062;-86
2022/03/22 06:29:07;;;;;;;20.20;11.70;;;1.30;99.90;;;;;;4918214;29;20084;-92
2022/03/22 06:31:36;;;;;;;20.05;12.13;;;1.40;99.90;;;;;;4916405;29;20063;-90
2022/03/22 06:34:04;;;;;;;19.52;11.75;;;1.50;99.90;;;;;;4917840;29;20549;-90
2022/03/22 06:36:31;;;;;;;18.63;12.10;;;1.30;99.90;;;;;;4918120;29;20059;-91
2022/03/22 06:38:58;;;;;;;19.98;11.85;;;1.30;99.90;;;;;;4918270;29;20139;-91
2022/03/22 06:41:25;;;;;;;23.38;12.60;;;1.50;99.90;;;;;;4919101;29;20052;-89
2022/03/22 06:43:58;;;;;;;20.50;11.95;;;1.50;99.90;;;;;;4918010;29;20139;-90
2022/03/22 06:46:26;;;;;;;21.80;11.57;;;1.90;99.90;;;;;;4918602;29;20063;-91
2022/03/22 06:48:55;;;;;;;20.27;12.20;;;2.00;99.90;;;;;;4920535;29;20076;-87
2022/03/22 06:51:22;;;;;;;20.05;12.05;;;2.30;99.90;;;;;;4922739;29;20143;-88
2022/03/22 06:53:55;;;;;;;20.67;12.40;;;2.60;99.90;;;;;;4925611;29;20095;-91
2022/03/22 06:56:24;;;;;;;18.85;11.75;;;2.80;99.50;;;;;;4923228;29;20478;-90
2022/03/22 06:58:52;;;;;;;19.30;12.23;;;2.90;98.80;;;;;;4920408;29;20060;-90
2022/03/22 07:01:19;;;;;;;20.23;12.57;;;2.90;98.80;;;;;;4919095;29;20450;-91
2022/03/22 07:03:46;;;;;;;20.50;12.35;;;2.90;99.20;;;;;;4920403;29;20541;-91
2022/03/22 07:06:15;;;;;;;20.00;11.57;;;2.80;99.30;;;;;;4921151;29;20104;-90
2022/03/22 07:08:42;;;;;;;18.75;11.63;;;2.90;99.00;;;;;;4919788;29;20095;-90
2022/03/22 07:13:54;;;;;;;18.95;11.95;;;3.10;98.50;;;;;;4923490;29;20059;-86
2022/03/22 07:16:24;;;;;;;20.40;12.50;;;3.20;98.10;;;;;;4922137;29;20059;-90
2022/03/22 07:18:54;;;;;;;17.55;10.90;;;3.20;98.20;;;;;;4921729;29;20072;-90
2022/03/22 07:21:23;;;;;;;18.42;11.40;;;3.50;97.70;;;;;;4922088;29;20076;-90
2022/03/22 07:23:51;;;;;;;19.17;11.27;;;3.60;97.40;;;;;;4921017;29;20052;-88
2022/03/22 07:26:18;;;;;;;20.80;12.13;;;3.50;97.50;;;;;;4920346;29;20051;-90
2022/03/22 07:28:46;;;;;;;19.20;11.55;;;3.60;97.70;;;;;;4921288;29;20048;-90
2022/03/22 07:31:13;;;;;;;18.58;11.23;;;3.60;97.50;;;;;;4920766;29;20071;-90
2022/03/22 07:33:40;;;;;;;22.55;11.50;;;3.70;96.90;;;;;;4920657;29;20135;-90
2022/03/22 07:36:08;;;;;;;18.50;11.77;;;3.80;96.30;;;;;;4921068;29;20455;-91
2022/03/22 07:38:39;;;;;;;19.52;11.73;;;3.90;96.20;;;;;;4920504;29;20557;-91
2022/03/22 07:41:07;;;;;;;22.45;12.27;;;3.90;95.60;;;;;;4919734;29;20056;-91
2022/03/22 07:43:35;;;;;;;20.88;11.85;;;4.10;95.00;;;;;;4920398;29;20120;-91
2022/03/22 07:46:02;;;;;;;22.52;12.95;;;4.20;93.80;;;;;;4920354;29;20610;-90
2022/03/22 07:48:30;;;;;;;19.00;11.52;;;4.30;93.50;;;;;;4920341;29;20052;-89
2022/03/22 07:53:45;;;;;;;22.67;12.02;;;4.60;93.00;;;;;;4919880;29;20067;-89
2022/03/22 07:56:13;;;;;;;19.05;11.85;;;4.60;92.80;;;;;;4919673;29;20561;-85
2022/03/22 07:58:41;;;;;;;17.05;10.60;;;4.70;92.20;;;;;;4919779;29;20439;-87
2022/03/22 08:01:08;;;;;;;16.08;10.60;;;4.80;92.50;;;;;;4919230;29;20060;-86
2022/03/22 08:03:35;;;;;;;18.17;11.15;;;4.80;92.60;;;;;;4919283;29;20120;-89
2022/03/22 08:06:07;;;;;;;18.30;10.48;;;5.00;92.80;;;;;;4919310;29;20103;-88
2022/03/22 08:08:34;;;;;;;20.42;11.95;;;5.10;92.70;;;;;;4919225;29;20060;-86
2022/03/22 08:11:05;;;;;;;17.63;10.90;;;5.10;92.90;;;;;;4919254;29;20056;-88
2022/03/22 08:13:34;;;;;;;18.35;11.02;;;5.10;92.50;;;;;;4919081;29;20486;-85
2022/03/22 08:16:01;;;;;;;16.33;9.95;;;5.30;92.00;;;;;;4919244;29;20112;-86
2022/03/22 08:18:28;;;;;;;16.38;10.00;;;5.50;92.10;;;;;;4919053;29;20108;-85
2022/03/22 08:20:56;;;;;;;17.60;10.43;;;5.50;92.10;;;;;;4918831;29;20414;-82
2022/03/22 08:23:24;;;;;;;16.80;10.13;;;5.60;91.70;;;;;;4919083;29;20405;-83
2022/03/22 08:25:51;;;;;;;16.88;10.88;;;5.70;92.50;;;;;;4918870;29;20583;-83
2022/03/22 08:28:21;;;;;;;17.98;10.80;;;5.80;93.30;;;;;;4918906;29;20605;-84
2022/03/22 08:30:48;;;;;;;16.92;11.00;;;5.80;93.20;;;;;;4918847;29;20056;-82
2022/03/22 08:33:15;;;;;;;16.55;10.10;;;5.90;93.00;;;;;;4918502;29;20585;-81
2022/03/22 08:35:45;;;;;;;16.15;9.60;;;6.00;92.40;;;;;;4918523;29;20134;-81
2022/03/22 08:38:13;;;;;;;18.92;11.95;;;6.10;91.80;;;;;;4918579;29;20519;-78
2022/03/22 08:40:41;;;;;;;18.65;11.27;;;6.10;90.80;;;;;;4917768;29;20047;-80
2022/03/22 08:43:08;;;;;;;17.08;10.23;;;6.30;90.30;;;;;;4917546;29;20557;-81
2022/03/22 08:45:38;;;;;;;17.73;10.15;;;6.40;89.70;;;;;;4918540;29;20139;-78
2022/03/22 08:48:10;;;;;;;17.83;9.90;;;6.40;90.00;;;;;;4918801;29;20052;-81
2022/03/22 08:50:39;;;;;;;17.02;10.90;;;6.50;89.90;;;;;;4918392;29;20172;-81
2022/03/22 08:53:06;;;;;;;14.93;9.98;;;6.60;90.40;;;;;;4917902;29;20111;-82
2022/03/22 08:55:34;;;;;;;18.48;11.52;;;6.60;90.70;;;;;;4920857;29;20044;-80
2022/03/22 08:58:05;;;;;;;18.02;11.13;;;6.70;90.90;;;;;;4918204;29;20048;-80
2022/03/22 09:00:33;;;;;;;16.95;10.35;;;6.80;90.90;;;;;;4918265;29;20405;-81
2022/03/22 09:03:05;;;;;;;16.23;10.57;;;6.80;90.70;;;;;;4916834;29;20056;-78
2022/03/22 09:08:16;;;;;;;;;;;7.00;90.30;;;;;;4918641;29;20059;-78
2022/03/22 09:10:46;;;;;;;14.90;9.80;;;7.10;89.90;;;;;;4917583;29;20017;-76
2022/03/22 09:13:14;;;;;;;15.75;10.95;;;7.20;89.30;;;;;;4917841;29;20091;-78
2022/03/22 09:15:41;;;;;;;17.90;11.02;;;7.20;88.10;;;;;;4917509;29;20218;-80
2022/03/22 09:18:14;;;;;;;17.17;10.98;;;7.40;88.20;;;;;;4917454;29;20075;-81
2022/03/22 09:20:41;;;;;;;17.50;10.77;;;7.50;86.90;;;;;;4917585;29;20063;-79
2022/03/22 09:23:09;;;;;;;17.60;10.02;;;7.60;87.20;;;;;;4914467;29;20046;-78
2022/03/22 09:25:37;;;;;;;21.27;11.50;;;7.60;84.70;;;;;;4934164;29;20054;-77
2022/03/22 09:28:06;;;;;;;17.13;10.25;;;7.70;83.90;;;;;;4933973;29;20138;-76
2022/03/22 09:30:34;;;;;;;17.73;10.32;;;7.90;82.40;;;;;;4933976;29;20383;-77
2022/03/22 09:33:02;;;;;;;16.33;10.48;;;8.00;82.80;;;;;;4934057;29;20066;-77
2022/03/22 09:35:31;;;;;;;15.10;9.65;;;8.00;81.70;;;;;;4925234;29;20135;-79
2022/03/22 09:37:59;;;;;;;17.70;11.27;;;8.20;80.60;;;;;;4913785;29;20056;-79
2022/03/22 09:40:27;;;;;;;19.63;11.23;;;8.20;80.70;;;;;;4913297;29;20056;-77
2022/03/22 09:42:55;;;;;;;14.80;10.02;;;8.30;80.70;;;;;;4914864;29;20048;-78
2022/03/22 09:45:26;;;;;;;15.45;9.48;;;8.40;78.00;;;;;;4914702;29;20048;-79
2022/03/22 09:47:54;;;;;;;16.02;9.02;;;8.50;76.70;;;;;;4915095;29;20154;-77
2022/03/22 09:51:44;;;;;;;12.75;8.57;;;8.70;75.90;;;;;;4914589;29;20096;-76
2022/03/22 09:53:15;;;;;;;14.30;8.77;;;8.80;73.90;;;;;;4914753;29;20052;-78
2022/03/22 09:55:42;;;;;;;15.30;9.35;;;8.90;75.10;;;;;;4914807;29;20052;-77
2022/03/22 09:58:09;;;;;;;14.15;8.90;;;9.00;75.50;;;;;;4914320;29;20052;-80
2022/03/22 10:00:38;;;;;;;15.68;9.60;;;9.00;75.10;;;;;;4914286;29;20083;-76
2022/03/22 10:03:05;;;;;;;14.15;9.32;;;9.10;74.90;;;;;;4914473;29;20144;-78
2022/03/22 10:05:32;;;;;;;13.10;9.52;;;9.00;74.00;;;;;;4914172;29;20545;-80
2022/03/22 10:08:01;;;;;;;16.38;10.20;;;9.10;73.50;;;;;;4914379;29;20502;-78
2022/03/22 10:10:30;;;;;;;15.45;9.80;;;9.30;78.10;;;;;;4913619;29;20052;-80
2022/03/22 10:13:01;;;;;;;17.45;10.85;;;9.60;76.10;;;;;;4914326;29;20062;-79
2022/03/22 10:15:34;;;;;;;14.68;9.85;;;9.70;73.50;;;;;;4914366;29;20170;-82
2022/03/22 10:18:05;;;;;;;19.63;11.43;;;9.80;75.60;;;;;;4914283;29;20143;-77
2022/03/22 10:20:34;;;;;;;16.98;11.10;;;9.70;72.00;;;;;;4914334;29;20134;-77
2022/03/22 10:23:03;;;;;;;16.65;11.23;;;9.60;77.20;;;;;;4914049;29;20581;-80
2022/03/22 10:25:34;;;;;;;19.52;12.15;;;9.80;70.70;;;;;;4914526;29;20135;-81
2022/03/22 10:28:03;;;;;;;18.60;11.00;;;9.70;69.80;;;;;;4910756;29;20418;-80
2022/03/22 10:30:31;;;;;;;19.20;11.35;;;9.80;72.70;;;;;;4913744;29;20063;-81
2022/03/22 10:33:00;;;;;;;16.80;10.82;;;9.90;70.00;;;;;;4913914;29;20139;-78
2022/03/22 10:35:30;;;;;;;17.75;11.57;;;10.00;70.70;;;;;;4913312;29;20059;-79
2022/03/22 10:38:00;;;;;;;18.17;11.45;;;10.00;69.90;;;;;;4913617;29;20541;-80
2022/03/22 10:40:32;;;;;;;18.98;12.00;;;10.10;68.40;;;;;;4911524;29;20141;-79
2022/03/22 10:43:01;;;;;;;17.80;10.98;;;10.10;68.30;;;;;;4913817;29;20135;-81
2022/03/22 10:45:30;;;;;;;18.95;12.20;;;10.20;68.10;;;;;;4914968;29;20187;-80
2022/03/22 10:47:58;;;;;;;19.75;13.20;;;10.40;67.30;;;;;;4917560;29;20143;-81
2022/03/22 10:50:25;;;;;;;19.17;12.07;;;10.30;68.30;;;;;;4917332;29;20416;-79
2022/03/22 10:52:56;;;;;;;16.27;10.85;;;10.10;70.80;;;;;;4917244;29;20070;-81
2022/03/22 10:55:27;;;;;;;17.38;11.15;;;10.40;66.10;;;;;;4917490;29;20139;-80
2022/03/22 10:57:58;;;;;;;17.10;11.18;;;10.50;66.40;;;;;;4916949;29;20060;-81
2022/03/22 11:00:30;;;;;;;17.00;11.13;;;10.60;66.20;;;;;;4916802;29;20272;-81
2022/03/22 11:02:58;;;;;;;18.13;11.10;;;10.50;65.10;;;;;;4917526;29;20066;-80
2022/03/22 11:05:27;;;;;;;20.65;13.00;;;10.70;64.20;;;;;;4916987;29;20412;-80
2022/03/22 11:07:57;;;;;;;22.27;13.60;;;10.80;64.70;;;;;;4916729;29;20187;-75
2022/03/22 11:10:29;;;;;;;18.92;12.88;;;10.90;64.30;;;;;;4916813;29;20104;-80
2022/03/22 11:12:58;;;;;;;19.60;12.93;;;11.00;64.50;;;;;;4916532;29;20071;-80
2022/03/22 11:15:27;;;;;;;20.00;12.82;;;11.30;63.40;;;;;;4916782;29;20048;-79
2022/03/22 11:17:56;;;;;;;18.92;12.38;;;11.40;63.70;;;;;;4916579;29;20063;-80
2022/03/22 11:20:25;;;;;;;22.02;13.20;;;11.10;62.80;;;;;;4916685;29;20060;-79
2022/03/22 11:23:00;;;;;;;19.20;12.48;;;11.20;64.90;;;;;;4916679;29;20064;-80
2022/03/22 11:25:34;;;;;;;19.50;12.65;;;11.30;62.20;;;;;;4916733;29;20063;-80
2022/03/22 11:28:06;;;;;;;21.02;13.20;;;11.50;62.20;;;;;;4916408;29;20059;-75
2022/03/22 11:30:36;;;;;;;18.88;12.70;;;11.50;61.90;;;;;;4916331;29;20131;-77
2022/03/22 11:35:52;;;;;;;17.42;12.02;;;11.70;61.30;;;;;;4919909;29;20061;-79
2022/03/22 11:38:45;;;;;;;22.13;13.98;;;12.00;60.90;;;;;;4919065;29;20134;-80
2022/03/22 11:44:12;;;;;;;21.02;12.30;;;11.90;62.60;;;;;;4916589;29;20497;-81
2022/03/22 11:46:40;;;;;;;19.63;12.70;;;12.40;62.40;;;;;;4930682;29;20404;-78
2022/03/22 11:49:20;;;;;;;17.88;12.13;;;12.60;59.50;;;;;;4925187;29;20087;-80
2022/03/22 11:51:54;;;;;;;19.40;13.60;;;12.70;60.10;;;;;;4916113;29;20064;-78
2022/03/22 11:54:24;;;;;;;23.48;14.32;;;12.70;57.80;;;;;;4901585;29;20482;-79
2022/03/22 11:56:53;;;;;;;19.67;13.73;;;12.80;56.90;;;;;;4915978;29;20092;-79
2022/03/22 11:59:23;;;;;;;22.98;14.18;;;13.00;56.80;;;;;;4901138;29;20063;-81
2022/03/22 12:01:59;;;;;;;22.08;14.48;;;13.00;57.40;;;;;;4915875;29;20048;-83
2022/03/22 12:04:41;;;;;;;22.35;14.13;;;13.20;56.60;;;;;;4916952;29;20048;-86
2022/03/22 12:07:12;;;;;;;17.85;11.80;;;13.20;57.90;;;;;;4918050;29;20050;-82
2022/03/22 12:09:41;;;;;;;18.98;13.20;;;13.20;55.70;;;;;;4915331;29;20060;-85
2022/03/22 12:12:11;;;;;;;17.10;11.85;;;13.50;54.10;;;;;;4916739;29;20052;-82
2022/03/22 12:14:42;;;;;;;17.40;11.63;;;13.50;55.00;;;;;;4916770;29;20391;-81
2022/03/22 12:17:09;;;;;;;20.77;13.82;;;13.80;54.20;;;;;;4917189;29;20091;-79
2022/03/22 12:19:37;;;;;;;19.63;12.63;;;14.00;54.00;;;;;;4916178;29;20048;-81
2022/03/22 12:22:07;;;;;;;15.98;11.57;;;14.20;53.00;;;;;;4916344;29;20127;-78
2022/03/22 12:24:35;;;;;;;15.25;11.10;;;14.10;53.90;;;;;;4915615;29;20131;-76
2022/03/22 12:27:05;;;;;;;19.17;12.00;;;14.20;52.60;;;;;;4915519;29;20066;-77
2022/03/22 12:29:39;;;;;;;18.98;13.00;;;14.10;52.50;;;;;;4915347;29;20139;-81
2022/03/22 12:32:15;;;;;;;18.77;13.57;;;14.20;52.20;;;;;;4915607;29;20405;-80
2022/03/22 12:34:43;;;;;;;16.48;12.25;;;14.30;52.20;;;;;;4915233;29;20131;-82
2022/03/22 12:37:12;;;;;;;14.80;10.98;;;14.70;51.90;;;;;;4914871;29;20694;-82
2022/03/22 12:39:42;;;;;;;14.20;10.20;;;14.90;53.30;;;;;;4913909;29;20480;-81
2022/03/22 12:42:11;;;;;;;17.33;12.18;;;15.10;50.30;;;;;;4914893;29;20052;-80
2022/03/22 12:44:40;;;;;;;19.15;12.63;;;15.20;49.50;;;;;;4915162;29;20052;-80
2022/03/22 12:47:08;;;;;;;15.10;10.75;;;15.30;49.10;;;;;;4914738;29;20147;-80
2022/03/22 12:49:38;;;;;;;18.15;11.38;;;15.50;48.60;;;;;;4915295;29;20171;-75
2022/03/22 12:52:07;;;;;;;17.40;12.75;;;15.70;49.70;;;;;;4899051;29;20063;-76
2022/03/22 12:54:37;;;;;;;15.98;11.65;;;15.70;47.40;;;;;;4914872;29;20040;-81
2022/03/22 12:57:09;;;;;;;16.13;10.95;;;16.00;50.50;;;;;;4914997;29;20055;-80
2022/03/22 12:59:36;;;;;;;15.82;11.85;;;16.20;51.00;;;;;;4914426;29;20075;-80
2022/03/22 13:02:07;;;;;;;17.75;13.00;;;16.20;46.90;;;;;;4914551;29;20060;-77
2022/03/22 13:04:37;;;;;;;18.00;11.82;;;16.10;46.80;;;;;;4914508;29;20047;-80
2022/03/22 13:07:08;;;;;;;15.70;10.95;;;16.20;47.30;;;;;;4926348;29;20056;-78
2022/03/22 13:12:21;;;;;;;15.73;11.10;;;16.60;45.60;;;;;;4933433;29;20517;-80
2022/03/22 13:15:04;;;;;;;16.80;11.70;;;16.70;46.70;;;;;;4933822;29;20058;-81
2022/03/22 13:17:41;;;;;;;16.33;12.07;;;17.00;45.10;;;;;;4934305;29;20050;-78
2022/03/22 13:20:15;;;;;;;16.33;11.18;;;17.30;43.70;;;;;;4933935;29;20296;-79
2022/03/22 13:22:51;;;;;;;15.35;10.52;;;17.40;42.80;;;;;;4919562;29;20052;-81
2022/03/22 13:25:19;;;;;;;14.65;10.85;;;17.30;43.40;;;;;;4914317;29;20055;-81
2022/03/22 13:27:56;;;;;;;15.57;10.95;;;17.80;42.90;;;;;;4914335;29;20059;-81
2022/03/22 13:30:25;;;;;;;17.25;10.98;;;17.80;41.20;;;;;;4914304;29;20056;-78
2022/03/22 13:32:54;;;;;;;15.63;11.30;;;17.50;41.00;;;;;;4914375;29;20056;-80
2022/03/22 13:35:21;;;;;;;16.85;11.23;;;17.80;40.20;;;;;;4914420;29;20052;-80
2022/03/22 13:37:51;;;;;;;15.00;10.07;;;18.00;40.10;;;;;;4914569;29;20406;-80
2022/03/22 13:40:21;;;;;;;12.68;9.75;;;18.30;41.20;;;;;;4913013;29;20142;-81
2022/03/22 13:43:01;;;;;;;16.15;10.40;;;18.50;38.30;;;;;;4914799;29;20142;-82
2022/03/22 13:45:28;;;;;;;13.85;10.27;;;18.60;38.60;;;;;;4914455;29;20060;-80
2022/03/22 13:47:58;;;;;;;14.43;10.65;;;18.80;37.90;;;;;;4916498;29;20083;-78
2022/03/22 13:50:30;;;;;;;14.75;9.77;;;19.00;37.60;;;;;;4933840;29;20088;-81
2022/03/22 13:53:07;;;;;;;14.85;11.30;;;19.50;38.20;;;;;;4924532;29;20056;-81
2022/03/22 13:55:38;;;;;;;14.88;10.73;;;19.90;37.00;;;;;;4915209;29;20062;-79
2022/03/22 13:58:11;;;;;;;14.07;10.57;;;19.90;37.20;;;;;;4915609;29;20048;-79
2022/03/22 14:00:40;;;;;;;18.75;11.00;;;20.00;37.60;;;;;;4915155;29;20091;-80
2022/03/22 14:03:10;;;;;;;13.27;10.02;;;20.10;36.10;;;;;;4915608;29;20084;-78
2022/03/22 14:05:38;;;;;;;13.57;9.52;;;20.80;35.90;;;;;;4928826;29;20864;-81
2022/03/22 14:08:06;;;;;;;13.68;9.98;;;21.20;39.40;;;;;;4934330;29;20138;-78
2022/03/22 14:10:33;;;;;;;13.48;10.85;;;21.80;34.00;;;;;;4933988;29;20110;-78
2022/03/22 14:13:01;;;;;;;17.67;11.25;;;21.90;35.10;;;;;;4934547;29;20131;-77
2022/03/22 14:15:29;;;;;;;12.52;9.73;;;21.80;33.50;;;;;;4934098;29;20067;-80
2022/03/22 14:17:58;;;;;;;14.00;10.60;;;22.70;33.60;;;;;;4934346;29;20053;-76
2022/03/22 14:20:28;;;;;;;14.70;10.38;;;23.50;32.70;;;;;;4922390;29;20048;-76
2022/03/22 14:22:58;;;;;;;14.55;10.77;;;23.30;31.70;;;;;;4918785;29;20149;-80
2022/03/22 14:25:26;;;;;;;15.30;11.02;;;22.60;31.40;;;;;;4919096;29;20445;-79
2022/03/22 14:27:56;;;;;;;13.73;9.80;;;23.70;31.90;;;;;;4918382;29;20083;-80
2022/03/22 14:30:27;;;;;;;12.40;9.45;;;24.60;30.60;;;;;;4919042;29;20058;-77
2022/03/22 14:32:57;;;;;;;11.75;8.95;;;24.40;30.40;;;;;;4918917;29;20413;-79
2022/03/22 14:35:49;;;;;;;10.38;8.52;;;25.30;30.30;;;;;;4918786;29;20506;-78
2022/03/22 14:38:19;;;;;;;13.20;8.60;;;25.60;29.90;;;;;;4919003;29;20055;-79
2022/03/22 14:40:47;;;;;;;9.23;7.68;;;25.70;29.40;;;;;;4917049;29;20475;-78
2022/03/22 14:43:15;;;;;;;9.38;7.85;;;26.10;29.30;;;;;;4918610;29;20127;-77
2022/03/22 14:45:47;;;;;;;11.05;8.70;;;26.90;29.20;;;;;;4917835;29;20071;-78
2022/03/22 14:48:16;;;;;;;10.98;8.73;;;26.60;28.60;;;;;;4917884;29;20532;-76
2022/03/22 14:50:44;;;;;;;9.32;7.63;;;26.60;29.10;;;;;;4917757;29;20064;-74
2022/03/22 14:58:47;;;;;;;8.15;7.15;;;26.50;28.40;;;;;;4919221;29;20165;-79
2022/03/22 14:58:50;;;;;;;8.93;7.45;;;27.10;28.90;;;;;;4918011;29;20054;-80
2022/03/22 15:01:17;;;;;;;9.65;7.57;;;27.20;28.00;;;;;;4918520;29;20051;-79
2022/03/22 15:03:46;;;;;;;10.15;7.47;;;28.20;28.00;;;;;;4918153;29;20052;-79
2022/03/22 15:06:17;;;;;;;7.53;6.72;;;28.10;27.80;;;;;;4918463;29;20108;-77
2022/03/22 15:08:45;;;;;;;8.20;7.10;;;27.70;27.10;;;;;;4918790;29;20124;-79
2022/03/22 15:11:13;;;;;;;9.63;7.45;;;27.60;27.80;;;;;;4918784;29;20529;-79
2022/03/22 15:13:41;;;;;;;8.93;6.90;;;28.40;27.80;;;;;;4919370;29;20056;-78
2022/03/22 15:16:10;;;;;;;7.53;6.03;;;28.00;27.20;;;;;;4919319;29;20139;-79
2022/03/22 15:18:38;;;;;;;7.68;6.45;;;27.90;27.30;;;;;;4919521;29;20048;-78
2022/03/22 15:21:06;;;;;;;9.55;6.35;;;27.30;26.90;;;;;;4919142;29;20477;-80
2022/03/22 15:23:34;;;;;;;8.45;6.88;;;27.60;27.00;;;;;;4918761;29;20051;-80
2022/03/22 15:26:01;;;;;;;8.25;6.72;;;27.90;27.10;;;;;;4920793;29;20135;-79
2022/03/22 15:28:28;;;;;;;8.25;6.93;;;27.80;27.20;;;;;;4920052;29;20147;-81
2022/03/22 15:30:56;;;;;;;7.53;6.70;;;28.00;26.90;;;;;;4919914;29;20155;-79
2022/03/22 15:33:24;;;;;;;7.80;6.28;;;27.70;27.00;;;;;;4919212;29;20080;-77
2022/03/22 15:35:51;;;;;;;7.05;6.13;;;27.50;27.10;;;;;;4919383;29;20051;-79
2022/03/22 15:38:18;;;;;;;6.82;6.00;;;27.70;27.80;;;;;;4919073;29;20146;-79
2022/03/22 15:40:47;;;;;;;8.43;6.43;;;28.10;27.00;;;;;;4917171;29;20056;-79
2022/03/22 15:43:14;;;;;;;9.05;6.30;;;28.30;27.10;;;;;;4918451;29;20056;-79
2022/03/22 15:45:42;;;;;;;8.75;5.95;;;27.60;27.10;;;;;;4916937;29;20146;-76
2022/03/22 15:48:10;;;;;;;8.70;6.28;;;27.30;27.20;;;;;;4917536;29;20147;-79
2022/03/22 15:50:37;;;;;;;7.63;6.35;;;27.60;27.50;;;;;;4917274;29;20052;-78
2022/03/22 15:53:07;;;;;;;7.32;6.40;;;28.20;26.80;;;;;;4915199;29;20048;-79
2022/03/22 15:55:36;;;;;;;7.93;6.47;;;28.10;26.90;;;;;;4916621;29;20056;-78
2022/03/22 15:58:07;;;;;;;8.93;6.10;;;27.80;26.70;;;;;;4917475;29;20096;-75
2022/03/22 16:00:37;;;;;;;8.18;6.20;;;28.30;26.50;;;;;;4918439;29;20048;-76
2022/03/22 16:03:05;;;;;;;6.82;5.85;;;27.40;26.30;;;;;;4918349;29;20505;-77
2022/03/22 16:05:33;;;;;;;7.57;5.93;;;27.40;27.10;;;;;;4918257;29;20048;-74
2022/03/22 16:08:00;;;;;;;7.50;6.03;;;27.40;26.40;;;;;;4917628;29;20527;-76
2022/03/22 16:10:27;;;;;;;8.00;6.40;;;27.90;26.50;;;;;;4917893;29;20126;-74
2022/03/22 16:12:54;;;;;;;8.00;6.30;;;27.80;26.40;;;;;;4918286;29;20048;-74
2022/03/22 16:15:27;;;;;;;8.48;6.00;;;27.70;26.40;;;;;;4916293;29;20956;-74
2022/03/22 16:17:56;;;;;;;8.50;5.75;;;27.50;26.20;;;;;;4922466;29;20068;-76
2022/03/22 16:20:24;;;;;;;8.75;6.57;;;27.20;26.50;;;;;;4925553;29;20059;-75
2022/03/22 16:22:52;;;;;;;8.68;5.95;;;26.90;26.50;;;;;;4919287;29;20086;-75
2022/03/22 16:25:19;;;;;;;8.45;5.88;;;27.20;26.50;;;;;;4921075;29;20048;-73
2022/03/22 16:27:49;;;;;;;7.93;5.70;;;27.40;26.00;;;;;;4918403;29;20112;-82
2022/03/22 16:30:22;;;;;;;9.20;5.50;;;27.30;26.20;;;;;;4931318;29;20092;-82
2022/03/22 16:38:22;;;;;;;7.63;6.05;;;26.40;26.70;;;;;;4936388;29;20138;-84
2022/03/22 16:40:50;;;;;;;8.77;6.10;;;25.90;27.00;;;;;;4944016;29;20052;-85
2022/03/22 16:43:18;;;;;;;8.02;6.28;;;26.00;26.90;;;;;;4939199;29;20516;-81
2022/03/22 16:45:49;;;;;;;9.80;6.97;;;26.00;26.70;;;;;;4941727;29;20099;-84
2022/03/22 16:48:20;;;;;;;9.60;6.28;;;25.60;27.20;;;;;;4942627;29;20067;-84
2022/03/22 16:50:50;;;;;;;10.52;6.32;;;25.00;27.70;;;;;;4940316;29;20099;-86
2022/03/22 16:53:19;;;;;;;8.82;6.60;;;25.00;26.80;;;;;;4943535;29;20049;-84
2022/03/22 16:55:46;;;;;;;8.43;6.15;;;24.60;27.60;;;;;;4941967;29;20083;-83
2022/03/22 16:58:14;;;;;;;8.40;6.10;;;24.30;27.90;;;;;;4939213;29;20051;-84
2022/03/22 17:00:42;;;;;;;7.55;5.90;;;24.40;27.60;;;;;;4937270;28;20139;-84
2022/03/22 17:03:09;;;;;;;8.50;6.50;;;24.40;27.80;;;;;;4920906;29;20067;-82
2022/03/22 17:05:38;;;;;;;8.55;6.10;;;24.00;27.90;;;;;;4918917;29;20405;-81
2022/03/22 17:08:05;;;;;;;7.35;6.10;;;23.70;28.40;;;;;;4919760;29;20052;-82
2022/03/22 17:10:33;;;;;;;8.25;6.20;;;23.20;28.60;;;;;;4917368;29;20131;-81
2022/03/22 17:13:00;;;;;;;9.40;5.95;;;22.40;29.40;;;;;;4917632;29;20550;-78
2022/03/22 17:15:27;;;;;;;8.77;6.45;;;21.90;29.80;;;;;;4916903;29;20115;-75
2022/03/22 17:17:55;;;;;;;10.48;6.70;;;21.50;30.20;;;;;;4916823;29;20096;-80
2022/03/22 17:20:23;;;;;;;9.63;6.60;;;21.20;30.50;;;;;;4916161;29;20139;-76
2022/03/22 17:22:52;;;;;;;9.30;6.63;;;21.10;31.20;;;;;;4916009;29;20088;-78
2022/03/22 17:25:20;;;;;;;10.15;6.20;;;20.80;31.40;;;;;;4916315;29;20147;-79
2022/03/22 17:27:48;;;;;;;8.52;6.43;;;20.40;31.40;;;;;;4915214;29;20134;-83
2022/03/22 17:30:16;;;;;;;8.80;5.85;;;20.10;31.90;;;;;;4906424;29;20478;-84
2022/03/22 17:32:45;;;;;;;8.80;6.10;;;19.70;31.90;;;;;;4919017;29;20430;-83
2022/03/22 17:35:13;;;;;;;8.75;6.18;;;19.50;32.20;;;;;;4919315;29;20483;-81
2022/03/22 17:37:41;;;;;;;9.10;5.80;;;19.00;32.50;;;;;;4921502;29;20052;-83
2022/03/22 17:40:12;;;;;;;7.78;5.72;;;18.50;32.70;;;;;;4916865;29;20060;-81
2022/03/22 17:42:40;;;;;;;9.57;5.90;;;18.40;33.60;;;;;;4918717;29;20055;-79
2022/03/22 17:45:09;;;;;;;9.20;6.50;;;17.90;35.00;;;;;;4917822;29;20487;-82
2022/03/22 17:47:38;;;;;;;10.55;7.05;;;17.80;35.90;;;;;;4918409;29;20044;-82
2022/03/22 17:50:08;;;;;;;11.63;8.32;;;17.80;37.40;;;;;;4918304;29;20147;-82
2022/03/22 17:52:35;;;;;;;14.48;9.57;;;17.60;38.30;;;;;;4917674;29;20059;-82
2022/03/22 17:55:04;;;;;;;14.70;10.93;;;17.40;39.50;;;;;;4920762;29;20052;-82
2022/03/22 17:57:33;;;;;;;16.65;10.73;;;17.40;39.90;;;;;;4919623;29;20083;-81
2022/03/22 18:00:01;;;;;;;12.13;9.70;;;17.10;40.40;;;;;;4915670;29;20052;-78
2022/03/22 18:02:28;;;;;;;16.88;13.00;;;17.10;41.00;;;;;;4925993;29;20056;-76
2022/03/22 18:04:56;;;;;;;15.30;11.38;;;16.80;41.90;;;;;;4935967;29;20153;-78
2022/03/22 18:07:23;;;;;;;15.02;11.13;;;16.90;42.00;;;;;;4918406;29;20063;-76